This site, now in its 22nd season, is a labour of love and fun from one of Ottawa's most avid time trialists and number crunchers. It adheres to and is permitted by the laws of Canada, promotes the objectives of every bicycle club whose results are shown, and is donated free of charge by myself for your enjoyment and usage. If you would like results from series you ride in to be shown here, give me (celia@drmath.ca) a shout!
NOTE that this site had to be quickly moved to a new server with a new version of Perl. Unfortunately the way of interacting with the web form has changed, so I'll have to do some reprogramming to get the buttons and search boxes working. Meanwhile the links work fine and you can always add query specifications into the URL! :-)


Index Page
ATT OTT WTT AATT CFCTT VVVTT
Help resultformat:
Case-sensitive

OBC Open TT Series - 2012-May-24 - 15km (Rockliffe Pkwy) (EvtFactor = 0.9047)

Ottawa Weather (18:00): Partly Cloudy. Temperature: 27°C, Humidity: 57%, Dew Point: 18°C, Wind: SSE 16 gust 35km/h, Pressure: 101.6kPa, Vis: 10km, Humidex: 32.
Ottawa Weather (19:00): Mainly Sunny. Temperature: 26°C, Humidity: 57%, Dew Point: 17°C, Wind: SSE 21 gust 31km/h, Pressure: 101.6kPa, Vis: 10km, Humidex: 32.
Ottawa Weather (20:00): Mainly Sunny. Temperature: 25°C, Humidity: 62%, Dew Point: 17°C, Wind: S 10km/h, Pressure: 101.6kPa, Vis: 10km, Humidex: 30.

Tonight was the first time out this season for Aaron Fillion, and has normally been the case, he finished first with a 2012 series best time (so far) of 18:38 or about 48.3km/h. Douglas van den Ham was a strong second in 19:36 while five riders - Logan Cornel (20:07), Alexandre Michel (20:07), Robert Parniak (20:08), Cadet rider Derek Gee (20:09) and Iain Radford (20:09) - finished with times between 20:07 and 20:09! For the women, Veronik Bourgon was fastest with a new personal best of 21:49 (about 41.25km/h). Tricia Spooner was second at 22:46 (about 39.5km/h), perhaps tired from a busy week on the bike. As expected, Robyn Angeles dropped into the 23s with 23:44 on her way back down to the 40km/h speeds she had decades ago on the old Limebank Road course. The most improved of the season-series and also the most improved in terms of previous database personal bests was Jeremy Medaglia with a cube speed ratio of about 2.24 and a good excuse - He started on time tonight rather than 6 minutes late as he did last week (when he had a mechanical problem)! Many others improved, and not because it was an easy night - Gusty winds from the south made several sections of the course quite slow.

These results were posted on the OBC site circa 23:00 on 2012-May-24 and are available here for your added pleasure and analysis.

(Lest complaints about me just lazily sucking in the results surface, I wish to make it perfectly clear that I would gladly do the data entry, getting the results up within a few of hours of the event, as history shows that I did for the WTT series for the decade beginning in 1998, and for the OTT series from 1999-2002 and again in 2006. The OBC Board however, not only won't let me volunteer here, but strangely enough they actually expelled me from the OBC for donating this time trial web site to you !)




 
 

BESTS?
 
1 Fillion, Aaron  OBC/RWR 18:38 48.301 1/86 U40M 1/17  
2 van den Ham, Douglas  NTF 19:36 45.918 2/86 U40M 2/17 1.0283
3 Cornel, Logan  --- 20:07 44.739 3/86 U30M 1/6  
Michel, Alexandre  TTC 20:07 44.739 3/86 U40M 3/17 1.0634
5 Parniak, Robert  TTC 20:08 44.702 5/86 U40M 4/17  
6 Gee, Derek  OBC 20:09 44.665 6/86 U17M 1/4 0.9852
Radford, Iain --- 20:09 44.665 6/86 U40M 5/17  
8 Boileau, Greg NTF 20:15 44.444 8/86 U40M 6/17 1.0578
9 Sudac, Rick  OBC/RWR 20:22 44.190 9/86 U70M 1/5  
10 Delaney, Olivier RWR 20:25 44.082 10/86 U30M 2/6  
11 Martel, Brad RWR 20:26 44.046 11/86 U50M 1/11 1.0123
12 Richer, Antoine --- 20:28 43.974 12/86 U40M 7/17 1.0321
13 Gee, Jon RWR 20:31 43.867 13/86 U60M 1/23 0.9357
14 Diaz, Rodrigo  EUR 20:45 43.373 14/86 U40M 8/17 1.0765
15 Datars, Paul  OBC/RWR 20:47 43.304 15/86 U60M 2/23  
16 De Haitre, Vincent OBC 20:53 43.097 16/86 U19M 1/2 1.0636
17 Campbell, Colin  OBC 21:05 42.688 17/86 U60M 3/23 0.9835
18 Budgell, Glen  OBC 21:06 42.654 18/86 U60M 4/23 1.0024
19 Pelda, Patrick WQW 21:26 41.991 19/86 U40M 9/17 1.3069
20 Sugden, David OBC/RDO 21:28 41.925 20/86 U50M 2/11  
21 Burge, Craig  OBC 21:29 41.893 21/86 U60M 5/23 1.1234
22 Roundell, Mark  OBC 21:34 41.731 22/86 U60M 6/23 1.0328
s 23 Bourgon, Veronik  --- 21:49 41.253 23/86 U30F 1/3 1.2181
24 Bellemare, Normand OBC 21:55 41.065 24/86 U60M 7/23 1.1308
Zappe, Erich RWR 21:55 41.065 24/86 U60M 7/23 1.0323
26 Brassard, David OCA 21:58 40.971 26/86 U40M 10/17 1.0462
27 Cameron, Allen  OBC/RWR 22:02 40.847 27/86 U60M 9/23  
28 Mullington, Chris WQW 22:04 40.785 28/86 U60M 10/23 0.9553
29 Bilenkey, David OBC/EUR 22:11 40.571 29/86 U50M 3/11  
30 Robitaille, Brian  OBC 22:12 40.541 30/86 U50M 4/11 1.0000
31 Lacasse, Jeremie  OBC 22:16 40.419 31/86 U17M 2/4  
32 Grace, Darrin  EUR 22:40 39.706 32/86 U50M 5/11 1.1528
33 Dorego, Jean-Louis OBC 22:41 39.677 33/86 U70M 2/5 1.0089
34 Larson, Eric RWR 22:45 39.560 34/86 U50M 6/11 1.0858
35 Spooner, Tricia  SRC 22:46 39.531 35/86 U50F 1/6  
36 Châtelain-Lacasse, Samuel --- 22:50 39.416 36/86 U17M 3/4 1.4343
Posthuma, Hans  OBC 22:50 39.416 36/86 U60M 11/23 0.9869
38 McHugh, Craig OBC 22:52 39.359 38/86 U50M 7/11  
39 Blais, Bob --- 22:53 39.330 39/86 U60M 12/23 1.0399
40 Moerman, Bram  OBC 22:56 39.244 40/86 U70M 3/5 0.9486
Schuck, Peter  OBC/RWR 22:56 39.244 40/86 U60M 13/23  
42 Chartrand, Pierre-Louis OBC 23:01 39.102 42/86 U50M 8/11 1.0463
43 Samborski, Mike OBC 23:10 38.849 43/86 U40M 11/17 0.9893
44 Joinette, Vincent --- 23:19 38.599 44/86 U19M 2/2 1.1960
45 Drouin, Marcel OBC 23:21 38.544 45/86 U50M 9/11 1.0413
46 Coudé, Martin --- 23:33 38.217 46/86 U30M 3/6 1.0410
47 Deschamps, Martin WQW 23:39 38.055 47/86 U40M 12/17 1.0364
48 Angeles, Robyn  IND 23:44 37.921 48/86 U50F 2/6 1.0384
49 Morvan, Jacques  OBC 23:52 37.709 49/86 U70M 4/5  
50 Rivoche, Michael WQW 23:53 37.683 50/86 U60M 14/23 1.0728
51 Xie, Bailin  OBC 23:56 37.604 51/86 U17F 1/2 0.9628
52 Czaban, Christina  OBC 23:59 37.526 52/86 U30F 2/3 1.0682
53 Reid, George OBC 24:07 37.319 53/86 U60M 15/23 1.0167
54 Burdett, Avery  OBC 24:08 37.293 54/86 U80M 1/2  
55 Ingham, Alison  OBC/RWR 24:10 37.241 55/86 U50F 3/6  
56 Blagdon, Wendy  OBC 24:25 36.860 56/86 U50F 4/6  
57 Cousineau, Tiz OBC 24:33 36.660 57/86 U30M 4/6  
58 Austen, Ian  OBC 24:37 36.561 58/86 U60M 16/23  
59 Pavelich, John OBC 24:40 36.486 59/86 U60M 17/23 1.0620
60 Meyer, Lisa  OBC 24:42 36.437 60/86 U60F 1/4 1.0598
61 Medaglia, Jeremy
(started on time this week rather than 6 minutes late!)
--- 24:44 36.388 61/86 U30M 5/6 2.2411
62 Hall, David  OBC 25:15 35.644 62/86 U60M 18/23 0.9784
63 Bouchard, Sebastién OBC 25:20 35.526 63/86 U30M 6/6  
64 Kramer, Mark OBC 25:21 35.503 64/86 U40M 13/17 0.9592
65 Marleau, Dianne  OBC 25:23 35.456 65/86 U60F 2/4 0.9496
66 Imbrogno, Giorgio  OBC 25:31 35.271 66/86 U70M 5/5 1.1180
67 Champagne, Luc OBC 25:33 35.225 67/86 U60M 19/23 0.9748
68 Datars, Sally OBC 25:48 34.884 68/86 U60F 3/4  
69 Dore, Morley OBC 26:02 34.571 69/86 U80M 2/2 0.9753
70 Janusauskas, Vytas  OBC 26:06 34.483 70/86 U60M 20/23 1.0527
71 King, Dustin --- 26:13 34.329 71/86 U17M 4/4 1.0425
72 Guevremont, Marc OBC 26:15 34.286 72/86 U40M 14/17  
73 McInnis, Celia  ABC/CYF 26:46 33.624 73/86 U60F 4/4 1.0245
74 Dal-Cin, Mauro EUR 26:54 33.457 74/86 U60M 21/23 0.9815
75 Burton, Myriam  OBC 27:00 33.333 75/86 U17F 2/2 1.4844
76 Hauschildt, Gunter OBC 27:01 33.313 76/86 U50M 10/11 0.8879
77 Cooper, Dave --- 27:13 33.068 77/86 U50M 11/11 1.0166
78 Douglas, Mark  OBC 27:15 33.028 78/86 U60M 22/23 1.0429
Kern, Monika --- 27:15 33.028 78/86 U50F 5/6 1.1044
80 Easton, Glenn OBC 27:26 32.807 80/86 U60M 23/23 0.9747
81 Nascimento, Flavia  OBC 28:56 31.106 81/86 U50F 6/6 0.8680
82 Olenik, Sarah OBC/CYF 30:04 29.933 82/86 U30F 3/3 1.2824
83 Maunders, Mike OBC 30:40 29.348 83/86 U40M 15/17  
84 LeBrun, Robert OBC 33:05 27.204 84/86 U40M 16/17 1.3300
85 Wright, Geoffrey  OBC 33:11 27.122 85/86 U90M 1/1 1.1700
86 Déry, Nicolas  OBC DNF   86/86 U40M 17/17  
 
Average Speed of all of the above 85 finishes (1275km in 33:33:31):37.993
>>>Average of the Average Speeds for these 85 finishes38.513<<<
 

The number of data records shown above is 86
The server processing of your query took: 0 wallclock secs ( 0.05 usr + 0.00 sys = 0.05 CPU)

Thanks to our Helpers: Sarah Aston, Michel Bernier, Laura Johnson, Alex McKnight, Jess Raymond, Stephanie Rees, Joanne Schuck, Peter Tregunno.

     


Apr 6 (Good Friday) Apr 16 (10km) Apr 23 (10km) (Canceled - Cold Drizzle) Apr 30 (10km)
May 1 (10km) May 3 May 7 (10km) May 8 (10km) May 10 May 14 (10km) May 15 May 15 (10km) May 17 May 22 May 22 (10km)
  May 24  
May 28 (10km) May 29 May 29 (10km) May 31
Jun 3 (40km) Jun 4 (10km) Jun 5 Jun 5 Jun 7 Jun 11 (10km) Jun 12 Jun 12 Jun 14 Jun 18 (10km) Jun 19 Jun 19 Jun 21 Jun 25 (10km) Jun 26 Jun 26 Jun 28
Jul 2 (10km) Jul 3 Jul 3 Jul 5 Jul 8 (40km) Jul 9 Jul 10 Jul 10 Jul 12 Jul 16 Jul 17 Jul 17 Jul 19 Jul 22 (40km) Jul 23 (Cancelled - Thunderstorm) Jul 24 Jul 24 Jul 26 Jul 30 Jul 31 Jul 31
Aug 2 Aug 5 (40km) Aug 6 Aug 7 Aug 7 Aug 9 Aug 12 (40km) Aug 13 Aug 14 Aug 14 Aug 16 Aug 20 Aug 21 Aug 21 Aug 23 Aug 28 Aug 28 (Invitational) Aug 30
Sep 2 (40km) Sep 4 Sep 6 Sep 9 (40km) Sep 11 Sep 13 Sep 18 Sep 25

OTT Rankings
3 Best Speeds     3 Best Speeds by category
WTT Rankings for All Participants
4 Best Speeds (≥4 WTT, ≤1 10km)     4 Best Speeds (≥4 WTT, ≤1 10km) by category
OTT Best Three 15km Rankings
Overall     by category     age-Hcap Female   age-Hcap Male
[OWA]TT BAR Ranking
Overall     by category     Rider "Consistency-Graph"
ABC BAR Ranking
Overall     by category     Rider "Consistency-Graph"
Other years
TT Calculator All TT People All TT events
ABC Home VVV Home
CKAP GOLD MEDAL
Other Links

Please send your comments and suggestions to: Celia McInnis
Copyright © 1998-2021 Celia McInnis. All rights reserved. Links are welcomed.